createdAt,value
2022-08-14T00:01:54.612Z,66.90
2022-08-14T00:04:34.623Z,66.80
2022-08-14T00:07:08.727Z,63.70
2022-08-14T00:09:39.907Z,65.00
2022-08-14T00:12:23.716Z,64.30
2022-08-14T00:14:55.215Z,64.00
2022-08-14T00:17:23.019Z,62.70
2022-08-14T00:19:51.748Z,62.20
2022-08-14T00:22:22.116Z,63.30
2022-08-14T00:25:07.520Z,62.70
2022-08-14T00:27:37.593Z,61.80
2022-08-14T00:30:10.890Z,62.50
2022-08-14T00:32:52.249Z,63.50
2022-08-14T00:35:35.786Z,61.90
2022-08-14T00:38:10.055Z,63.90
2022-08-14T00:40:37.028Z,63.10
2022-08-14T00:43:04.606Z,64.30
2022-08-14T00:45:31.752Z,70.10
2022-08-14T00:48:00.084Z,67.40
2022-08-14T00:50:29.403Z,66.50
2022-08-14T00:52:57.175Z,65.10
2022-08-14T00:55:24.753Z,64.80
2022-08-14T00:58:11.811Z,65.10
2022-08-14T01:00:51.086Z,66.30
2022-08-14T01:03:21.790Z,70.30
2022-08-14T01:05:51.783Z,70.60
2022-08-14T01:08:51.834Z,68.60
2022-08-14T01:11:19.471Z,65.00
2022-08-14T01:13:55.668Z,64.40
2022-08-14T01:16:28.160Z,64.50
2022-08-14T01:19:19.783Z,66.00
2022-08-14T01:21:52.823Z,64.40
2022-08-14T01:24:22.972Z,64.30
2022-08-14T01:27:00.475Z,65.00
2022-08-14T01:29:58.171Z,64.60
2022-08-14T01:32:22.565Z,65.60
2022-08-14T01:35:20.262Z,71.20
2022-08-14T01:37:44.492Z,68.20
2022-08-14T01:40:15.507Z,71.40
2022-08-14T01:42:47.300Z,68.10
2022-08-14T01:45:25.322Z,69.90
2022-08-14T01:48:03.126Z,67.60
2022-08-14T01:50:30.863Z,68.60
2022-08-14T01:53:01.462Z,70.90
2022-08-14T01:55:32.541Z,67.80
2022-08-14T01:58:02.151Z,67.10
2022-08-14T02:00:48.130Z,69.30
2022-08-14T02:03:16.230Z,68.50
2022-08-14T02:05:43.524Z,72.30
2022-08-14T02:08:10.728Z,69.20
2022-08-14T02:10:47.007Z,67.80
2022-08-14T02:13:15.957Z,67.30
2022-08-14T02:15:44.099Z,69.10
2022-08-14T02:18:11.858Z,68.70
2022-08-14T02:20:42.646Z,68.70
2022-08-14T02:23:09.731Z,72.20
2022-08-14T02:25:39.338Z,67.70
2022-08-14T02:28:24.683Z,70.70
2022-08-14T02:30:53.456Z,71.50
2022-08-14T02:33:22.706Z,69.10
2022-08-14T02:35:53.331Z,67.80
2022-08-14T02:38:30.595Z,67.20
2022-08-14T02:41:02.614Z,67.10
2022-08-14T02:43:46.287Z,67.70
2022-08-14T02:46:20.209Z,67.10
2022-08-14T02:49:02.050Z,67.00
2022-08-14T02:51:36.630Z,68.30
2022-08-14T02:54:04.829Z,67.10
2022-08-14T02:57:13.871Z,66.30
2022-08-14T02:59:19.544Z,66.90
2022-08-14T03:01:51.227Z,66.20
2022-08-14T03:04:22.287Z,68.90
2022-08-14T03:07:06.779Z,67.30
2022-08-14T03:10:25.253Z,67.10
2022-08-14T03:12:32.294Z,68.40
2022-08-14T03:15:14.175Z,67.40
2022-08-14T03:17:56.638Z,68.20
2022-08-14T03:20:25.985Z,69.50
2022-08-14T03:22:53.012Z,67.80
2022-08-14T03:25:22.163Z,68.10
2022-08-14T03:27:58.523Z,68.30
2022-08-14T03:30:39.177Z,69.60
2022-08-14T03:33:08.182Z,69.30
2022-08-14T03:35:37.462Z,68.10
2022-08-14T03:39:12.782Z,69.60
2022-08-14T03:40:57.092Z,68.20
2022-08-14T03:43:28.510Z,67.50
2022-08-14T03:46:00.588Z,68.00
2022-08-14T03:48:31.007Z,68.50
2022-08-14T03:50:59.621Z,68.50
2022-08-14T03:53:28.531Z,67.50
2022-08-14T03:55:58.924Z,69.30
2022-08-14T03:58:36.306Z,68.30
2022-08-14T04:01:04.278Z,68.30
2022-08-14T04:03:37.216Z,71.90
2022-08-14T04:06:04.870Z,70.70
2022-08-14T04:08:35.501Z,69.10
2022-08-14T04:11:02.985Z,68.60
2022-08-14T04:13:36.237Z,68.70
2022-08-14T04:16:12.404Z,68.80
2022-08-14T04:18:44.163Z,67.60
2022-08-14T04:21:11.699Z,67.30
2022-08-14T04:23:39.684Z,68.10
2022-08-14T04:26:08.692Z,68.00
2022-08-14T04:29:08.489Z,68.40
2022-08-14T04:33:01.947Z,67.80
2022-08-14T04:34:20.949Z,68.00
2022-08-14T04:37:12.947Z,68.10
2022-08-14T04:39:58.827Z,68.10
2022-08-14T04:42:47.120Z,68.00
2022-08-14T04:45:19.897Z,67.50
2022-08-14T04:48:06.138Z,68.20
2022-08-14T04:50:44.705Z,67.70
2022-08-14T04:53:23.213Z,68.00
2022-08-14T04:55:53.435Z,68.80
2022-08-14T04:58:32.216Z,69.10
2022-08-14T05:01:00.502Z,68.00
2022-08-14T05:03:29.257Z,69.90
2022-08-14T05:06:03.232Z,68.60
2022-08-14T05:08:43.503Z,69.90
2022-08-14T05:11:19.372Z,68.60
2022-08-14T05:16:36.688Z,67.90
2022-08-14T05:19:18.508Z,68.50
2022-08-14T05:22:00.192Z,67.80
2022-08-14T05:24:28.784Z,68.10
2022-08-14T05:26:55.847Z,67.80
2022-08-14T05:29:23.631Z,67.90
2022-08-14T05:31:57.378Z,68.40
2022-08-14T05:34:31.705Z,69.00
2022-08-14T05:37:02.190Z,68.90
2022-08-14T05:39:31.059Z,68.00
2022-08-14T05:41:58.398Z,69.00
2022-08-14T05:44:29.875Z,69.20
2022-08-14T05:46:57.515Z,70.00
2022-08-14T05:49:33.348Z,69.60
2022-08-14T05:52:03.499Z,69.50
2022-08-14T05:54:36.902Z,69.20
2022-08-14T05:57:04.951Z,68.60
2022-08-14T05:59:36.676Z,69.80
2022-08-14T06:02:10.932Z,69.10
2022-08-14T06:04:39.025Z,70.90
2022-08-14T06:07:06.446Z,68.50
2022-08-14T06:09:35.826Z,68.50
2022-08-14T06:12:11.761Z,68.70
2022-08-14T06:14:39.365Z,68.70
2022-08-14T06:17:06.836Z,68.50
2022-08-14T06:19:34.038Z,68.80
2022-08-14T06:22:02.189Z,68.80
2022-08-14T06:24:30.664Z,68.70
2022-08-14T06:27:04.306Z,68.50
2022-08-14T06:29:34.755Z,68.90
2022-08-14T06:32:38.099Z,68.90
2022-08-14T06:35:04.069Z,68.70
2022-08-14T06:37:41.425Z,69.00
2022-08-14T06:40:25.613Z,70.80
2022-08-14T06:42:56.427Z,69.60
2022-08-14T06:45:26.018Z,70.40
2022-08-14T06:47:54.309Z,70.30
2022-08-14T06:50:27.681Z,70.40
2022-08-14T06:53:01.616Z,70.10
2022-08-14T06:55:29.338Z,69.90
2022-08-14T06:57:57.832Z,70.00
2022-08-14T07:00:26.944Z,69.60
2022-08-14T07:03:13.051Z,69.30
2022-08-14T07:05:55.056Z,70.20
2022-08-14T07:08:29.469Z,73.30
2022-08-14T07:10:58.436Z,70.90
2022-08-14T07:13:27.614Z,73.00
2022-08-14T07:15:55.622Z,74.60
2022-08-14T07:18:27.125Z,73.10
2022-08-14T07:20:54.423Z,73.90
2022-08-14T07:23:24.137Z,74.40
2022-08-14T07:25:52.333Z,74.50
2022-08-14T07:28:21.549Z,75.40
2022-08-14T07:30:51.495Z,75.50
2022-08-14T07:33:24.958Z,75.10
2022-08-14T07:35:58.372Z,75.30
2022-08-14T07:38:31.982Z,74.90
2022-08-14T07:41:00.846Z,74.90
2022-08-14T07:43:27.903Z,75.60
2022-08-14T07:45:55.420Z,75.40
2022-08-14T07:48:25.080Z,75.40
2022-08-14T07:50:55.294Z,76.40
2022-08-14T07:53:29.838Z,76.30
2022-08-14T07:56:09.063Z,76.50
2022-08-14T07:58:51.798Z,76.70
2022-08-14T08:01:19.889Z,75.90
2022-08-14T08:03:49.808Z,76.50
2022-08-14T08:06:24.239Z,76.40
2022-08-14T08:09:01.130Z,76.50
2022-08-14T08:11:35.069Z,76.90
2022-08-14T08:14:10.820Z,76.30
2022-08-14T08:16:46.077Z,75.80
2022-08-14T08:19:14.371Z,76.00
2022-08-14T08:21:43.780Z,76.40
2022-08-14T08:24:14.968Z,76.90
2022-08-14T08:26:45.645Z,76.90
2022-08-14T08:29:18.773Z,76.30
2022-08-14T08:31:52.162Z,77.00
2022-08-14T08:34:19.822Z,75.90
2022-08-14T08:36:50.573Z,76.00
2022-08-14T08:39:23.045Z,76.40
2022-08-14T08:41:53.254Z,76.30
2022-08-14T08:44:32.034Z,76.70
2022-08-14T08:47:05.650Z,76.40
2022-08-14T08:49:52.591Z,76.20
2022-08-14T08:52:31.613Z,77.30
2022-08-14T08:54:59.682Z,76.10
2022-08-14T08:57:33.632Z,76.20
2022-08-14T09:00:02.149Z,76.80
2022-08-14T09:02:29.454Z,76.30
2022-08-14T09:05:02.250Z,75.80
2022-08-14T09:07:29.150Z,75.70
2022-08-14T09:10:00.101Z,75.70
2022-08-14T09:12:31.547Z,75.50
2022-08-14T09:15:03.821Z,75.70
2022-08-14T09:17:38.958Z,76.00
2022-08-14T09:20:11.352Z,75.60
2022-08-14T09:22:47.485Z,75.40
2022-08-14T09:25:19.815Z,75.60
2022-08-14T09:27:48.207Z,76.30
2022-08-14T09:30:32.560Z,76.30
2022-08-14T09:33:11.225Z,78.00
2022-08-14T09:35:39.499Z,79.20
2022-08-14T09:38:07.518Z,80.10
2022-08-14T09:40:55.475Z,79.30
2022-08-14T09:43:41.282Z,79.60
2022-08-14T09:46:09.665Z,79.10
2022-08-14T09:48:38.281Z,76.80
2022-08-14T09:54:12.939Z,75.40
2022-08-14T09:56:30.382Z,72.60
2022-08-14T09:58:59.918Z,71.20
2022-08-14T10:01:35.972Z,69.50
2022-08-14T10:04:06.965Z,67.60
2022-08-14T10:06:53.048Z,68.10
2022-08-14T10:09:20.042Z,67.20
2022-08-14T10:11:58.857Z,64.10
2022-08-14T10:14:35.863Z,62.50
2022-08-14T10:17:06.238Z,61.60
2022-08-14T10:19:35.759Z,60.20
2022-08-14T10:23:13.281Z,59.40
2022-08-14T10:24:57.525Z,59.40
2022-08-14T10:27:27.260Z,58.70
2022-08-14T10:29:58.375Z,57.60
2022-08-14T10:32:36.407Z,56.90
2022-08-14T10:35:14.346Z,56.30
2022-08-14T10:37:41.994Z,56.10
2022-08-14T10:40:38.350Z,55.50
2022-08-14T10:42:58.454Z,55.90
2022-08-14T10:45:35.455Z,56.30
2022-08-14T10:48:34.422Z,56.50
2022-08-14T10:51:03.619Z,56.40
2022-08-14T10:53:39.270Z,55.70
2022-08-14T10:56:21.460Z,55.50
2022-08-14T10:59:02.524Z,54.60
2022-08-14T11:01:40.153Z,55.40
2022-08-14T11:04:20.273Z,55.50
2022-08-14T11:06:56.572Z,55.80
2022-08-14T11:09:23.700Z,56.60
2022-08-14T11:12:33.320Z,56.20
2022-08-14T11:14:50.595Z,56.40
2022-08-14T11:17:32.160Z,56.30
2022-08-14T11:20:00.271Z,56.10
2022-08-14T11:22:52.842Z,55.90
2022-08-14T11:25:15.646Z,55.70
2022-08-14T11:27:44.441Z,55.40
2022-08-14T11:30:49.046Z,56.80
2022-08-14T11:33:05.370Z,56.60
2022-08-14T11:35:44.226Z,56.40
2022-08-14T11:38:18.123Z,55.50
2022-08-14T11:40:46.798Z,56.60
2022-08-14T11:43:14.943Z,54.70
2022-08-14T11:45:45.088Z,55.60
2022-08-14T11:49:01.758Z,55.70
2022-08-14T11:51:12.571Z,55.00
2022-08-14T11:53:42.017Z,54.80
2022-08-14T11:56:10.974Z,55.30
2022-08-14T11:58:38.350Z,54.20
2022-08-14T12:01:06.797Z,53.50
2022-08-14T12:03:51.162Z,53.60
2022-08-14T12:06:29.106Z,53.10
2022-08-14T12:09:08.674Z,51.50
2022-08-14T12:11:44.370Z,47.60
2022-08-14T12:14:29.702Z,50.10
2022-08-14T12:17:12.711Z,49.20
2022-08-14T12:19:58.775Z,49.70
2022-08-14T12:22:35.013Z,49.30
2022-08-14T12:25:05.958Z,47.10
2022-08-14T12:27:37.832Z,47.90
2022-08-14T12:30:09.325Z,47.20
2022-08-14T12:32:40.587Z,47.90
2022-08-14T12:35:08.257Z,47.20
2022-08-14T12:37:38.727Z,47.40
2022-08-14T12:40:11.207Z,46.20
2022-08-14T12:42:47.393Z,45.50
2022-08-14T12:45:30.739Z,45.60
2022-08-14T12:48:00.491Z,42.10
2022-08-14T12:50:35.436Z,44.50
2022-08-14T12:53:14.557Z,42.60
2022-08-14T12:56:22.337Z,43.50
2022-08-14T12:58:51.917Z,42.90
2022-08-14T13:01:24.284Z,43.40
2022-08-14T13:04:05.339Z,43.80
2022-08-14T13:06:33.576Z,42.60
2022-08-14T13:09:01.137Z,42.10
2022-08-14T13:11:33.397Z,41.90
2022-08-14T13:14:01.400Z,41.90
2022-08-14T13:16:38.314Z,42.20
2022-08-14T13:19:11.033Z,41.50
2022-08-14T13:21:58.550Z,41.30
2022-08-14T13:24:28.978Z,41.30
2022-08-14T13:27:04.293Z,39.00
2022-08-14T13:29:37.601Z,40.40
2022-08-14T13:32:09.399Z,39.90
2022-08-14T13:34:37.852Z,37.10
2022-08-14T13:37:07.375Z,38.50
2022-08-14T13:39:36.492Z,36.30
2022-08-14T13:42:10.957Z,37.60
2022-08-14T13:44:42.901Z,38.40
2022-08-14T13:47:15.285Z,38.30
2022-08-14T13:49:57.062Z,38.50
2022-08-14T13:52:52.173Z,39.20
2022-08-14T13:55:15.688Z,37.50
2022-08-14T13:57:49.647Z,38.40
2022-08-14T14:00:32.569Z,39.30
2022-08-14T14:03:00.240Z,37.90
2022-08-14T14:05:52.601Z,39.10
2022-08-14T14:08:18.502Z,41.30
2022-08-14T14:10:46.150Z,40.30
2022-08-14T14:13:15.789Z,40.90
2022-08-14T14:15:57.740Z,39.50
2022-08-14T14:18:34.406Z,40.90
2022-08-14T14:21:02.554Z,41.40
2022-08-14T14:23:30.326Z,41.70
2022-08-14T14:25:59.893Z,41.60
2022-08-14T14:28:31.157Z,40.70
2022-08-14T14:31:01.386Z,40.90
2022-08-14T14:33:49.554Z,41.50
2022-08-14T14:36:26.177Z,42.60
2022-08-14T14:38:57.844Z,41.70
2022-08-14T14:41:37.970Z,41.70
2022-08-14T14:44:16.566Z,42.00
2022-08-14T14:46:49.509Z,41.60
2022-08-14T14:49:18.072Z,41.60
2022-08-14T14:51:51.585Z,42.60
2022-08-14T14:54:30.036Z,41.30
2022-08-14T14:57:02.717Z,42.20
2022-08-14T14:59:30.223Z,42.30
2022-08-14T15:02:03.261Z,42.50
2022-08-14T15:04:37.177Z,42.00
2022-08-14T15:07:05.828Z,42.90
2022-08-14T15:09:33.666Z,43.10
2022-08-14T15:12:00.798Z,43.20
2022-08-14T15:14:54.749Z,43.20
2022-08-14T15:17:22.866Z,42.90
2022-08-14T15:19:56.909Z,43.50
2022-08-14T15:22:25.259Z,43.50
2022-08-14T15:24:52.357Z,43.80
2022-08-14T15:27:26.221Z,44.00
2022-08-14T15:29:53.963Z,44.30
2022-08-14T15:32:23.119Z,43.80
2022-08-14T15:34:51.271Z,43.50
2022-08-14T15:37:19.723Z,44.70
2022-08-14T15:39:46.850Z,44.40
2022-08-14T15:42:17.091Z,44.60
2022-08-14T15:44:57.768Z,44.80
2022-08-14T15:47:30.150Z,44.90
2022-08-14T15:50:00.094Z,44.40
2022-08-14T15:52:32.527Z,44.50
2022-08-14T15:55:03.604Z,44.60
2022-08-14T15:57:31.302Z,44.80
2022-08-14T16:00:37.946Z,44.70
2022-08-14T16:03:04.835Z,44.80
2022-08-14T16:05:38.139Z,44.20
2022-08-14T16:08:29.235Z,44.50
2022-08-14T16:10:56.510Z,44.50
2022-08-14T16:13:39.119Z,44.90
2022-08-14T16:16:48.170Z,45.00
2022-08-14T16:18:58.888Z,45.00
2022-08-14T16:21:31.766Z,44.80
2022-08-14T16:24:00.591Z,45.00
2022-08-14T16:26:30.052Z,45.00
2022-08-14T16:29:15.577Z,45.10
2022-08-14T16:31:43.820Z,44.60
2022-08-14T16:34:44.060Z,44.20
2022-08-14T16:36:58.897Z,45.50
2022-08-14T16:39:25.809Z,45.00
2022-08-14T16:41:58.065Z,45.20
2022-08-14T16:44:33.608Z,45.00
2022-08-14T16:47:04.221Z,45.40
2022-08-14T16:50:03.043Z,43.50
2022-08-14T16:52:26.466Z,44.50
2022-08-14T16:55:09.812Z,43.70
2022-08-14T16:57:49.995Z,44.90
2022-08-14T17:00:44.165Z,44.50
2022-08-14T17:03:13.294Z,44.80
2022-08-14T17:05:43.353Z,45.30
2022-08-14T17:08:32.131Z,45.40
2022-08-14T17:11:05.834Z,45.50
2022-08-14T17:13:58.299Z,45.60
2022-08-14T17:16:26.044Z,46.00
2022-08-14T17:19:00.982Z,45.80
2022-08-14T17:21:31.499Z,45.90
2022-08-14T17:24:56.878Z,46.20
2022-08-14T17:26:55.124Z,46.30
2022-08-14T17:29:29.283Z,46.30
2022-08-14T17:32:01.770Z,46.30
2022-08-14T17:34:49.604Z,46.40
2022-08-14T17:37:45.050Z,46.50
2022-08-14T17:40:15.146Z,46.50
2022-08-14T17:42:51.490Z,46.50
2022-08-14T17:45:28.690Z,46.60
2022-08-14T17:49:10.075Z,47.00
2022-08-14T17:51:00.202Z,46.90
2022-08-14T17:53:30.620Z,47.10
2022-08-14T17:57:24.484Z,46.50
2022-08-14T17:59:56.030Z,47.30
2022-08-14T18:02:31.214Z,46.90
2022-08-14T18:05:02.877Z,47.10
2022-08-14T18:08:00.360Z,47.00
2022-08-14T18:10:51.901Z,46.60
2022-08-14T18:13:10.594Z,47.00
2022-08-14T18:15:41.290Z,47.10
2022-08-14T18:18:11.799Z,47.20
2022-08-14T18:21:40.565Z,47.30
2022-08-14T18:23:28.299Z,47.20
2022-08-14T18:25:57.620Z,47.10
2022-08-14T18:28:48.128Z,47.40
2022-08-14T18:31:21.591Z,47.40
2022-08-14T18:34:31.697Z,47.50
2022-08-14T18:37:18.390Z,47.60
2022-08-14T18:40:03.193Z,47.50
2022-08-14T18:42:34.641Z,47.60
2022-08-14T18:45:12.777Z,47.70
2022-08-14T18:48:14.572Z,48.50
2022-08-14T18:50:32.485Z,47.90
2022-08-14T18:53:07.154Z,47.70
2022-08-14T18:55:52.874Z,47.90
2022-08-14T18:58:45.546Z,47.80
2022-08-14T19:01:24.194Z,48.00
2022-08-14T19:03:52.109Z,48.00
2022-08-14T19:06:19.496Z,47.90
2022-08-14T19:08:49.730Z,48.00
2022-08-14T19:11:43.473Z,48.00
2022-08-14T19:14:14.094Z,48.20
2022-08-14T19:16:53.520Z,48.10
2022-08-14T19:19:23.936Z,48.10
2022-08-14T19:21:57.681Z,48.10
2022-08-14T19:24:34.237Z,48.30
2022-08-14T19:27:24.259Z,48.20
2022-08-14T19:30:20.169Z,48.40
2022-08-14T19:32:50.603Z,48.40
2022-08-14T19:35:19.362Z,48.60
2022-08-14T19:37:52.413Z,48.70
2022-08-14T19:40:40.080Z,48.60
2022-08-14T19:43:09.568Z,48.70
2022-08-14T19:45:38.886Z,48.80
2022-08-14T19:48:15.951Z,48.70
2022-08-14T19:50:46.231Z,48.90
2022-08-14T19:53:16.715Z,49.10
2022-08-14T19:55:59.508Z,48.80
2022-08-14T19:58:54.680Z,49.00
2022-08-14T20:01:26.489Z,49.20
2022-08-14T20:04:46.767Z,49.00
2022-08-14T20:06:57.622Z,49.10
2022-08-14T20:11:07.362Z,49.00
2022-08-14T20:12:29.055Z,48.90
2022-08-14T20:15:15.488Z,48.90
2022-08-14T20:17:52.796Z,48.90
2022-08-14T20:20:31.717Z,49.00
2022-08-14T20:23:11.766Z,49.00
2022-08-14T20:25:55.843Z,49.10
2022-08-14T20:28:35.358Z,49.20
2022-08-14T20:31:15.818Z,49.30
2022-08-14T20:34:19.129Z,49.30
2022-08-14T20:37:11.671Z,49.30
2022-08-14T20:39:45.534Z,49.30
2022-08-14T20:42:43.583Z,50.10
2022-08-14T20:45:19.023Z,49.70
2022-08-14T20:47:50.682Z,49.60
2022-08-14T20:50:28.264Z,49.60
2022-08-14T20:52:58.205Z,49.70
2022-08-14T20:55:41.805Z,49.70
2022-08-14T20:58:41.853Z,50.00
2022-08-14T21:01:12.975Z,50.10
2022-08-14T21:03:56.858Z,49.90
2022-08-14T21:07:22.825Z,49.70
2022-08-14T21:10:03.373Z,49.70
2022-08-14T21:12:34.063Z,49.60
2022-08-14T21:15:05.050Z,49.60
2022-08-14T21:17:43.051Z,49.60
2022-08-14T21:20:21.350Z,49.60
2022-08-14T21:22:53.854Z,49.60
2022-08-14T21:25:23.901Z,49.70
2022-08-14T21:27:57.106Z,49.60
2022-08-14T21:30:41.888Z,49.60
2022-08-14T21:33:13.861Z,49.80
2022-08-14T21:35:45.705Z,49.80
2022-08-14T21:38:18.124Z,49.80
2022-08-14T21:40:48.956Z,49.90
2022-08-14T21:43:20.611Z,49.70
2022-08-14T21:45:53.360Z,49.60
2022-08-14T21:48:25.220Z,49.70
2022-08-14T21:51:01.111Z,49.70
2022-08-14T21:53:58.141Z,49.70
2022-08-14T21:56:38.546Z,49.70
2022-08-14T21:59:17.680Z,49.80
2022-08-14T22:02:00.461Z,49.80
2022-08-14T22:04:40.820Z,49.90
2022-08-14T22:07:16.944Z,50.00
2022-08-14T22:09:45.280Z,50.00
2022-08-14T22:12:57.583Z,50.10
2022-08-14T22:15:14.716Z,50.00
2022-08-14T22:17:44.189Z,50.10
2022-08-14T22:20:16.351Z,50.20
2022-08-14T22:22:44.782Z,50.20
2022-08-14T22:25:17.228Z,50.80
2022-08-14T22:27:55.872Z,50.30
2022-08-14T22:30:25.192Z,50.30
2022-08-14T22:32:57.680Z,50.30
2022-08-14T22:35:26.025Z,50.30
2022-08-14T22:38:34.633Z,50.40
2022-08-14T22:41:07.550Z,50.40
2022-08-14T22:43:32.762Z,50.50
2022-08-14T22:46:06.162Z,50.60
2022-08-14T22:48:42.070Z,50.70
2022-08-14T22:51:09.796Z,50.70
2022-08-14T22:53:40.557Z,51.00
2022-08-14T22:56:20.939Z,50.80
2022-08-14T22:58:49.811Z,50.90
2022-08-14T23:01:22.874Z,51.10
2022-08-14T23:03:50.177Z,50.90
2022-08-14T23:07:03.076Z,51.00
2022-08-14T23:09:36.445Z,51.10
2022-08-14T23:11:54.255Z,51.10
2022-08-14T23:14:26.829Z,51.20
2022-08-14T23:16:57.855Z,51.20
2022-08-14T23:19:33.574Z,51.20
2022-08-14T23:22:03.390Z,51.30
2022-08-14T23:24:31.253Z,51.40
2022-08-14T23:26:58.569Z,51.40
2022-08-14T23:29:25.690Z,51.50
2022-08-14T23:31:59.143Z,51.50
2022-08-14T23:34:29.591Z,51.60
2022-08-14T23:36:58.093Z,51.70
2022-08-14T23:39:32.524Z,51.70
2022-08-14T23:42:08.547Z,51.80
2022-08-14T23:44:37.690Z,51.70
2022-08-14T23:47:11.857Z,51.80
2022-08-14T23:50:03.182Z,51.80
2022-08-14T23:52:50.527Z,51.90
2022-08-14T23:55:31.184Z,52.00
2022-08-14T23:58:00.720Z,52.00
